STL weather

St Louis Lambert International Airport
St Louis, Missouri, United States

Public forecast

Using degrees Fahrenheit for public forecast. Weather courtesy of forecast.io.

Current aviation weather report (METAR) for St Louis Lambert International Airport

Retrieved 2019/10/17 03:51 UTC (1 hour ago):

KSTL 170351Z 31005KT 10SM BKN039 08/03 A3010 RMK AO2 SLP194 T00830033

Aviation forecast (TAF) for St Louis Lambert International Airport

Retrieved 2019-10-17 00:28 UTC (4 hours ago):

TAF KSTL 162325Z 1700/1806 32009KT P6SM BKN045 FM170400 32005KT P6SM SCT035 FM171200 VRB04KT P6SM FEW250